createdAt,value
2023-05-16T00:03:03.534Z,15.17
2023-05-16T00:07:19.979Z,15.36
2023-05-16T00:11:36.214Z,15.12
2023-05-16T00:15:53.815Z,15.08
2023-05-16T00:20:11.377Z,15.07
2023-05-16T00:24:27.597Z,15.14
2023-05-16T00:28:44.422Z,15.35
2023-05-16T00:33:00.818Z,15.24
2023-05-16T00:37:17.173Z,15.11
2023-05-16T00:41:34.868Z,15.15
2023-05-16T00:45:51.069Z,15.00
2023-05-16T00:50:08.055Z,15.03
2023-05-16T00:54:27.234Z,15.02
2023-05-16T00:58:43.622Z,14.99
2023-05-16T01:03:00.850Z,15.00
2023-05-16T01:07:17.448Z,15.11
2023-05-16T01:11:56.751Z,15.14
2023-05-16T01:16:35.928Z,15.02
2023-05-16T01:21:04.210Z,15.08
2023-05-16T01:25:45.734Z,15.06
2023-05-16T01:30:02.484Z,15.05
2023-05-16T01:34:18.997Z,15.11
2023-05-16T01:38:42.119Z,15.13
2023-05-16T01:43:00.852Z,15.34
2023-05-16T01:47:19.710Z,14.99
2023-05-16T01:51:39.760Z,15.00
2023-05-16T01:56:01.832Z,15.21
2023-05-16T02:00:18.084Z,15.18
2023-05-16T02:04:34.636Z,15.11
2023-05-16T02:08:51.235Z,15.15
2023-05-16T02:13:07.460Z,15.25
2023-05-16T02:17:23.714Z,15.20
2023-05-16T02:21:40.237Z,15.25
2023-05-16T02:25:56.540Z,15.34
2023-05-16T02:30:13.170Z,15.28
2023-05-16T02:34:29.435Z,15.05
2023-05-16T02:38:45.714Z,15.27
2023-05-16T02:43:02.004Z,15.23
2023-05-16T02:47:18.219Z,15.07
2023-05-16T02:51:34.488Z,15.12
2023-05-16T02:55:50.721Z,15.02
2023-05-16T03:00:07.769Z,15.05
2023-05-16T03:04:23.982Z,14.90
2023-05-16T03:08:40.284Z,14.58
2023-05-16T03:12:56.548Z,14.56
2023-05-16T03:17:12.819Z,14.83
2023-05-16T03:21:29.063Z,14.75
2023-05-16T03:25:46.577Z,14.98
2023-05-16T03:30:02.828Z,14.83
2023-05-16T03:34:19.076Z,14.70
2023-05-16T03:38:35.668Z,14.94
2023-05-16T03:42:52.047Z,14.79
2023-05-16T03:47:08.294Z,14.96
2023-05-16T03:51:24.562Z,14.87
2023-05-16T03:55:40.983Z,15.00
2023-05-16T03:59:57.264Z,14.87
2023-05-16T04:04:14.456Z,14.86
2023-05-16T04:08:31.427Z,14.95
2023-05-16T04:12:47.618Z,15.02
2023-05-16T04:17:04.160Z,15.13
2023-05-16T04:21:20.679Z,15.16
2023-05-16T04:25:36.938Z,15.28
2023-05-16T04:29:53.320Z,15.39
2023-05-16T04:34:09.726Z,15.30
2023-05-16T04:38:26.777Z,15.12
2023-05-16T04:42:43.352Z,15.13
2023-05-16T04:46:59.863Z,15.14
2023-05-16T04:51:16.312Z,15.13
2023-05-16T04:55:32.608Z,15.22
2023-05-16T04:59:48.911Z,15.36
2023-05-16T05:04:05.410Z,15.18
2023-05-16T05:08:22.529Z,15.47
2023-05-16T05:12:39.050Z,15.48
2023-05-16T05:16:55.666Z,15.31
2023-05-16T05:21:11.983Z,15.48
2023-05-16T05:25:28.677Z,15.52
2023-05-16T05:29:45.107Z,15.68
2023-05-16T05:34:01.506Z,15.53
2023-05-16T05:38:17.716Z,15.69
2023-05-16T05:42:34.175Z,15.57
2023-05-16T05:46:50.580Z,15.87
2023-05-16T05:51:07.102Z,15.69
2023-05-16T05:55:23.369Z,15.73
2023-05-16T05:59:39.581Z,15.65
2023-05-16T06:03:55.955Z,15.79
2023-05-16T06:08:12.221Z,15.29
2023-05-16T06:12:28.467Z,15.73
2023-05-16T06:16:44.981Z,15.81
2023-05-16T06:21:01.357Z,16.10
2023-05-16T06:25:17.860Z,16.03
2023-05-16T06:29:34.132Z,15.99
2023-05-16T06:33:50.318Z,16.03
2023-05-16T06:38:06.504Z,16.20
2023-05-16T06:42:22.809Z,16.07
2023-05-16T06:46:39.229Z,16.06
2023-05-16T06:50:59.627Z,16.07
2023-05-16T06:55:16.137Z,15.94
2023-05-16T06:59:32.894Z,15.95
2023-05-16T07:03:49.358Z,16.27
2023-05-16T07:08:07.849Z,16.23
2023-05-16T07:12:24.429Z,16.41
2023-05-16T07:16:40.855Z,16.38
2023-05-16T07:20:57.235Z,16.27
2023-05-16T07:25:14.766Z,16.18
2023-05-16T07:29:31.185Z,16.32
2023-05-16T07:33:47.645Z,16.20
2023-05-16T07:38:04.053Z,16.31
2023-05-16T07:42:20.360Z,16.02
2023-05-16T07:46:36.783Z,16.41
2023-05-16T07:50:55.627Z,16.37
2023-05-16T07:55:12.168Z,16.30
2023-05-16T07:59:28.753Z,16.49
2023-05-16T08:03:45.148Z,16.52
2023-05-16T08:08:01.459Z,16.52
2023-05-16T08:12:17.844Z,16.62
2023-05-16T08:16:34.302Z,16.49
2023-05-16T08:20:51.523Z,16.44
2023-05-16T08:25:09.267Z,16.21
2023-05-16T08:29:25.631Z,16.38
2023-05-16T08:33:41.829Z,16.47
2023-05-16T08:38:00.634Z,16.48
2023-05-16T08:42:17.028Z,16.51
2023-05-16T08:46:36.153Z,16.40
2023-05-16T08:50:53.595Z,16.51
2023-05-16T08:55:11.858Z,16.20
2023-05-16T08:59:29.221Z,16.48
2023-05-16T09:03:45.952Z,16.26
2023-05-16T09:08:02.564Z,16.05
2023-05-16T09:12:20.232Z,15.99
2023-05-16T09:16:36.554Z,16.38
2023-05-16T09:20:53.872Z,16.41
2023-05-16T09:29:36.972Z,16.57
2023-05-16T09:33:59.441Z,16.19
2023-05-16T09:38:17.525Z,16.65
2023-05-16T09:42:33.984Z,16.66
2023-05-16T09:46:51.403Z,17.04
2023-05-16T09:51:08.275Z,17.18
2023-05-16T09:55:24.600Z,16.95
2023-05-16T09:59:43.974Z,17.12
2023-05-16T10:04:00.477Z,17.03
2023-05-16T10:08:16.862Z,17.18
2023-05-16T10:12:33.538Z,17.01
2023-05-16T10:16:50.273Z,17.05
2023-05-16T10:21:20.010Z,17.11
2023-05-16T10:25:41.981Z,16.99
2023-05-16T10:29:59.024Z,17.06
2023-05-16T10:34:16.466Z,16.56
2023-05-16T10:38:32.845Z,16.70
2023-05-16T10:43:04.111Z,16.56
2023-05-16T10:47:20.875Z,16.61
2023-05-16T10:51:39.145Z,17.01
2023-05-16T10:56:01.655Z,16.88
2023-05-16T11:00:24.355Z,16.51
2023-05-16T11:04:49.801Z,16.77
2023-05-16T11:09:12.143Z,16.48
2023-05-16T11:13:29.039Z,16.83
2023-05-16T11:17:46.304Z,17.08
2023-05-16T11:22:29.697Z,17.22
2023-05-16T11:26:46.046Z,16.82
2023-05-16T11:31:05.529Z,16.80
2023-05-16T11:35:21.815Z,16.94
2023-05-16T11:39:38.168Z,16.97
2023-05-16T11:43:54.481Z,17.06
2023-05-16T11:48:14.416Z,17.19
2023-05-16T11:52:33.614Z,17.16
2023-05-16T11:56:50.794Z,17.42
2023-05-16T12:01:08.308Z,17.36
2023-05-16T12:05:26.660Z,17.46
2023-05-16T12:09:43.316Z,17.77
2023-05-16T12:14:00.418Z,17.90
2023-05-16T12:18:33.048Z,18.24
2023-05-16T12:22:49.854Z,18.05
2023-05-16T12:27:08.512Z,18.39
2023-05-16T12:31:31.805Z,18.63
2023-05-16T12:35:48.936Z,18.50
2023-05-16T12:40:06.569Z,18.35
2023-05-16T12:44:23.898Z,18.29
2023-05-16T12:48:42.803Z,18.22
2023-05-16T12:53:01.321Z,18.48
2023-05-16T12:57:18.011Z,18.58
2023-05-16T13:01:36.168Z,18.82
2023-05-16T13:05:53.473Z,18.74
2023-05-16T13:10:11.149Z,18.59
2023-05-16T13:14:27.506Z,18.60
2023-05-16T13:18:43.941Z,18.92
2023-05-16T13:23:00.289Z,18.38
2023-05-16T13:27:21.414Z,18.81
2023-05-16T13:31:37.902Z,18.59
2023-05-16T13:35:55.710Z,18.34
2023-05-16T13:40:12.355Z,18.02
2023-05-16T13:44:28.861Z,18.65
2023-05-16T13:48:45.182Z,18.45
2023-05-16T13:53:01.480Z,18.68
2023-05-16T13:57:18.149Z,18.33
2023-05-16T14:01:36.922Z,18.44
2023-05-16T14:05:53.335Z,18.68
2023-05-16T14:10:10.388Z,18.87
2023-05-16T14:14:28.603Z,18.43
2023-05-16T14:18:45.213Z,18.39
2023-05-16T14:23:01.874Z,18.35
2023-05-16T14:27:18.416Z,18.37
2023-05-16T14:31:40.691Z,18.55
2023-05-16T14:35:57.122Z,18.66
2023-05-16T14:40:13.627Z,19.21
2023-05-16T14:44:30.619Z,19.20
2023-05-16T14:48:48.354Z,19.30
2023-05-16T14:53:05.063Z,18.74
2023-05-16T14:57:21.451Z,19.10
2023-05-16T15:01:38.275Z,19.00
2023-05-16T15:05:55.548Z,19.18
2023-05-16T15:10:12.771Z,19.18
2023-05-16T15:14:35.122Z,19.20
2023-05-16T15:18:52.316Z,19.28
2023-05-16T15:23:09.651Z,19.22
2023-05-16T15:27:26.478Z,19.26
2023-05-16T15:31:42.914Z,19.23
2023-05-16T15:35:59.286Z,19.13
2023-05-16T15:40:15.909Z,19.06
2023-05-16T15:44:32.528Z,19.07
2023-05-16T15:48:49.040Z,18.87
2023-05-16T15:53:05.397Z,18.86
2023-05-16T15:57:21.955Z,18.72
2023-05-16T16:01:38.307Z,18.76
2023-05-16T16:05:54.811Z,18.77
2023-05-16T16:10:13.174Z,18.75
2023-05-16T16:14:29.580Z,18.72
2023-05-16T16:18:46.170Z,18.82
2023-05-16T16:23:02.977Z,18.68
2023-05-16T16:27:34.256Z,18.47
2023-05-16T16:31:50.787Z,18.46
2023-05-16T16:36:21.241Z,18.00
2023-05-16T16:40:38.012Z,18.04
2023-05-16T16:44:54.547Z,18.08
2023-05-16T16:49:10.987Z,18.13
2023-05-16T16:53:27.260Z,18.12
2023-05-16T16:57:43.957Z,18.12
2023-05-16T17:02:00.560Z,18.02
2023-05-16T17:06:17.025Z,17.98
2023-05-16T17:10:33.640Z,18.09
2023-05-16T17:14:51.583Z,18.11
2023-05-16T17:19:08.613Z,18.02
2023-05-16T17:23:25.284Z,18.04
2023-05-16T17:27:42.049Z,17.64
2023-05-16T17:31:58.436Z,17.72
2023-05-16T17:36:14.772Z,17.82
2023-05-16T17:40:32.636Z,17.79
2023-05-16T17:44:58.551Z,17.51
2023-05-16T17:49:20.644Z,17.61
2023-05-16T17:53:38.170Z,17.20
2023-05-16T17:57:54.692Z,17.22
2023-05-16T18:02:15.382Z,16.77
2023-05-16T18:06:32.235Z,17.14
2023-05-16T18:10:51.497Z,17.41
2023-05-16T18:15:10.905Z,17.35
2023-05-16T18:19:27.496Z,17.21
2023-05-16T18:23:43.946Z,17.24
2023-05-16T18:28:00.257Z,17.17
2023-05-16T18:32:16.645Z,17.36
2023-05-16T18:36:33.046Z,17.44
2023-05-16T18:40:50.660Z,17.39
2023-05-16T18:45:07.678Z,17.44
2023-05-16T18:49:24.072Z,17.43
2023-05-16T18:53:40.482Z,17.26
2023-05-16T18:57:58.085Z,17.21
2023-05-16T19:02:14.417Z,17.12
2023-05-16T19:06:30.771Z,17.25
2023-05-16T19:10:47.080Z,17.19
2023-05-16T19:15:03.622Z,17.04
2023-05-16T19:19:20.033Z,17.08
2023-05-16T19:23:36.897Z,17.09
2023-05-16T19:27:53.545Z,16.94
2023-05-16T19:32:11.064Z,16.93
2023-05-16T19:36:27.569Z,17.14
2023-05-16T19:40:44.913Z,17.22
2023-05-16T19:45:01.195Z,17.39
2023-05-16T19:49:20.007Z,17.39
2023-05-16T19:53:36.590Z,17.49
2023-05-16T19:57:53.149Z,17.41
2023-05-16T20:02:09.834Z,17.59
2023-05-16T20:06:26.292Z,17.67
2023-05-16T20:10:42.856Z,17.52
2023-05-16T20:14:59.835Z,17.61
2023-05-16T20:19:24.597Z,17.51
2023-05-16T20:23:43.682Z,17.53
2023-05-16T20:28:00.977Z,17.71
2023-05-16T20:32:17.678Z,17.55
2023-05-16T20:36:34.974Z,17.60
2023-05-16T20:40:51.608Z,17.48
2023-05-16T20:45:08.729Z,17.70
2023-05-16T20:49:25.114Z,17.46
2023-05-16T20:53:41.643Z,17.67
2023-05-16T20:58:01.137Z,17.57
2023-05-16T21:02:18.546Z,17.52
2023-05-16T21:06:34.862Z,17.39
2023-05-16T21:10:51.293Z,17.57
2023-05-16T21:15:08.434Z,17.39
2023-05-16T21:19:25.027Z,17.42
2023-05-16T21:23:41.585Z,17.42
2023-05-16T21:27:57.919Z,17.29
2023-05-16T21:32:16.302Z,17.27
2023-05-16T21:36:33.326Z,17.19
2023-05-16T21:40:50.117Z,17.28
2023-05-16T21:45:12.728Z,17.40
2023-05-16T21:49:29.053Z,17.29
2023-05-16T21:53:46.899Z,17.48
2023-05-16T21:58:04.151Z,17.49
2023-05-16T22:02:23.204Z,17.64
2023-05-16T22:06:40.881Z,17.48
2023-05-16T22:10:57.225Z,17.36
2023-05-16T22:15:13.748Z,17.53
2023-05-16T22:19:30.035Z,17.54
2023-05-16T22:23:46.323Z,17.51
2023-05-16T22:28:02.624Z,17.49
2023-05-16T22:32:18.963Z,17.48
2023-05-16T22:36:35.329Z,17.49
2023-05-16T22:40:51.670Z,17.56
2023-05-16T22:45:08.567Z,17.49
2023-05-16T22:49:24.960Z,17.61
2023-05-16T22:53:41.369Z,17.56
2023-05-16T22:57:59.976Z,17.51
2023-05-16T23:02:16.302Z,17.48
2023-05-16T23:06:32.819Z,17.68
2023-05-16T23:10:49.260Z,17.49
2023-05-16T23:15:10.408Z,17.64
2023-05-16T23:19:27.105Z,17.54
2023-05-16T23:23:43.496Z,17.42
2023-05-16T23:27:59.826Z,17.39
2023-05-16T23:32:16.118Z,17.45
2023-05-16T23:36:32.460Z,17.44
2023-05-16T23:40:48.785Z,17.42
2023-05-16T23:45:05.419Z,17.01
2023-05-16T23:49:21.718Z,17.22
2023-05-16T23:53:38.615Z,17.48
2023-05-16T23:57:54.808Z,17.33
